Terminal Aerodrome Forecast
Issued by NWS Grand Forks, ND

Home | Current Version | Previous Version | Graphics & Text | Print | Product List | Glossary On
Versions: 1 2 3 4 5 6 7 8 9 10 11 12 13 14 15
000
FTUS43 KFGF 161700
TAFGFK
TAF
KGFK 161720Z 1618/1718 34010KT P6SM BKN250
      TEMPO 1618/1620 3SM -SN BKN015
     FM170000 34005KT P6SM SCT250=

USA.gov is the U.S. government's official web portal to all federal, state and local government web resources and services.